Time;durP1;ratioP1;P1;durP2;ratioP2;P2;SDS_P1;SDS_P2;PMS_P1;PMS_P2;Temp;Humidity;BMP_temperature;BMP_pressure;BME280_temperature;BME280_humidity;BME280_pressure;Samples;Min_cycle;Max_cycle;Signal;HPM_P1;HPM_P2
2021/08/30 00:00:21;;;;;;;7.00;6.27;;;16.80;99.90;;;;;;5092865;28;20622;-61
2021/08/30 00:02:48;;;;;;;6.73;6.13;;;16.90;99.90;;;;;;5092738;28;20710;-61
2021/08/30 00:05:14;;;;;;;9.83;6.57;;;16.90;99.90;;;;;;5092643;28;20232;-61
2021/08/30 00:07:41;;;;;;;7.70;6.90;;;16.80;99.90;;;;;;5092536;28;20208;-61
2021/08/30 00:10:10;;;;;;;6.90;6.13;;;16.80;99.90;;;;;;5092454;28;20212;-62
2021/08/30 00:12:40;;;;;;;7.27;6.57;;;16.80;99.90;;;;;;5092901;28;20524;-61
2021/08/30 00:15:08;;;;;;;7.13;6.53;;;16.80;99.90;;;;;;5092428;28;20224;-61
2021/08/30 00:17:35;;;;;;;7.50;6.80;;;16.80;99.90;;;;;;5092516;28;20309;-61
2021/08/30 00:20:03;;;;;;;8.18;7.20;;;16.70;99.90;;;;;;5092353;28;20215;-61
2021/08/30 00:22:30;;;;;;;7.53;6.83;;;16.70;99.90;;;;;;5092051;28;20671;-61
2021/08/30 00:24:57;;;;;;;8.63;7.83;;;16.80;99.90;;;;;;5092302;28;20243;-61
2021/08/30 00:27:25;;;;;;;8.70;7.17;;;16.70;99.90;;;;;;5092437;28;20204;-61
2021/08/30 00:29:52;;;;;;;8.60;7.80;;;16.70;99.90;;;;;;5092205;28;20212;-61
2021/08/30 00:32:18;;;;;;;8.03;7.23;;;16.70;99.90;;;;;;5092203;28;20214;-61
2021/08/30 00:34:45;;;;;;;8.07;7.27;;;16.70;99.90;;;;;;5091807;28;20236;-61
2021/08/30 00:37:12;;;;;;;10.53;8.27;;;16.70;99.90;;;;;;5092015;28;20200;-61
2021/08/30 00:39:38;;;;;;;9.00;8.10;;;16.70;99.90;;;;;;5091361;28;20203;-61
2021/08/30 00:42:05;;;;;;;8.73;7.83;;;16.70;99.90;;;;;;5092128;28;20211;-61
2021/08/30 00:44:33;;;;;;;8.93;8.03;;;16.70;99.90;;;;;;5091665;28;20251;-61
2021/08/30 00:47:00;;;;;;;8.93;7.93;;;16.70;99.90;;;;;;5091852;28;20200;-61
2021/08/30 00:49:27;;;;;;;10.27;8.10;;;16.70;99.90;;;;;;5091604;28;20721;-61
2021/08/30 00:51:55;;;;;;;9.80;8.73;;;16.70;99.90;;;;;;5092095;28;20227;-61
2021/08/30 00:54:22;;;;;;;9.07;8.23;;;16.70;99.90;;;;;;5091942;28;20200;-61
2021/08/30 00:56:49;;;;;;;9.47;8.53;;;16.70;99.90;;;;;;5091797;28;20205;-61
2021/08/30 00:59:16;;;;;;;9.10;8.20;;;16.70;99.90;;;;;;5091485;28;20200;-61
2021/08/30 01:01:44;;;;;;;9.30;8.27;;;16.80;99.90;;;;;;5091616;28;20230;-61
2021/08/30 01:04:12;;;;;;;9.10;8.20;;;16.80;99.90;;;;;;5091103;28;20699;-61
2021/08/30 01:06:46;;;;;;;9.53;8.63;;;16.80;99.90;;;;;;5091798;28;20204;-61
2021/08/30 01:09:23;;;;;;;8.70;7.90;;;16.80;99.90;;;;;;5091666;28;20215;-61
2021/08/30 01:11:56;;;;;;;8.27;7.47;;;16.80;99.90;;;;;;5091646;28;20290;-61
2021/08/30 01:14:26;;;;;;;9.43;8.53;;;16.90;99.90;;;;;;5091429;28;20862;-61
2021/08/30 01:16:55;;;;;;;9.47;8.40;;;16.90;99.90;;;;;;5091838;28;20215;-61
2021/08/30 01:19:42;;;;;;;9.13;8.23;;;16.80;99.90;;;;;;5091474;28;20725;-61
2021/08/30 01:22:11;;;;;;;10.37;9.33;;;16.90;99.90;;;;;;5091514;28;20208;-60
2021/08/30 01:24:38;;;;;;;9.47;8.57;;;16.90;99.90;;;;;;5091163;28;20228;-61
2021/08/30 01:27:06;;;;;;;9.27;8.47;;;16.80;99.90;;;;;;5091319;28;20219;-61
2021/08/30 01:29:40;;;;;;;11.93;8.23;;;16.80;99.90;;;;;;5091394;28;20204;-60
2021/08/30 01:32:18;;;;;;;8.97;8.17;;;16.90;99.90;;;;;;5091395;28;20265;-60
2021/08/30 01:34:46;;;;;;;9.63;8.73;;;16.80;99.90;;;;;;5091228;28;20301;-60
2021/08/30 01:37:13;;;;;;;9.50;8.40;;;16.80;99.90;;;;;;5091180;28;20231;-60
2021/08/30 01:39:42;;;;;;;9.03;8.17;;;16.80;99.90;;;;;;5090725;28;20215;-61
2021/08/30 01:42:09;;;;;;;9.40;8.50;;;16.80;99.90;;;;;;5091132;28;20204;-61
2021/08/30 01:44:36;;;;;;;9.67;8.77;;;16.80;99.90;;;;;;5090519;28;20306;-61
2021/08/30 01:47:04;;;;;;;9.40;8.50;;;16.80;99.90;;;;;;5091024;28;20219;-61
2021/08/30 01:49:34;;;;;;;9.53;8.53;;;16.90;99.90;;;;;;5090704;28;20700;-62
2021/08/30 01:52:01;;;;;;;9.97;8.97;;;16.90;99.90;;;;;;5090745;28;20687;-62
2021/08/30 01:54:29;;;;;;;10.20;9.13;;;16.90;99.90;;;;;;5090815;28;20290;-62
2021/08/30 01:56:57;;;;;;;9.50;8.60;;;16.90;99.90;;;;;;5090748;28;20682;-62
2021/08/30 02:02:11;;;;;;;9.48;8.52;;;16.80;99.90;;;;;;5090887;28;20271;-62
2021/08/30 02:04:39;;;;;;;10.03;9.10;;;16.80;99.90;;;;;;5090501;28;20224;-62
2021/08/30 02:07:07;;;;;;;9.80;8.80;;;16.80;99.90;;;;;;5090946;28;20211;-62
2021/08/30 02:09:34;;;;;;;10.20;9.30;;;16.80;99.90;;;;;;5090530;28;20696;-62
2021/08/30 02:12:01;;;;;;;9.17;8.37;;;16.70;99.90;;;;;;5090793;28;20209;-62
2021/08/30 02:14:27;;;;;;;9.60;8.60;;;16.80;99.90;;;;;;5090605;28;20248;-62
2021/08/30 02:16:59;;;;;;;9.40;8.50;;;16.70;99.90;;;;;;5090525;28;20554;-62
2021/08/30 02:19:31;;;;;;;8.83;7.97;;;16.70;99.90;;;;;;5090792;28;20257;-62
2021/08/30 02:22:03;;;;;;;8.63;7.83;;;16.70;99.90;;;;;;5090818;28;20583;-62
2021/08/30 02:24:35;;;;;;;9.27;8.37;;;16.70;99.90;;;;;;5090416;28;20224;-62
2021/08/30 02:27:08;;;;;;;9.50;8.20;;;16.70;99.90;;;;;;5090738;28;20464;-61
2021/08/30 02:29:46;;;;;;;9.27;7.97;;;16.70;99.90;;;;;;5090453;28;20397;-61
2021/08/30 02:32:15;;;;;;;10.27;8.18;;;16.70;99.90;;;;;;5090730;28;20204;-61
2021/08/30 02:34:46;;;;;;;8.27;7.50;;;16.60;99.90;;;;;;5090456;28;20293;-62
2021/08/30 02:37:15;;;;;;;8.40;7.60;;;16.60;99.90;;;;;;5090411;28;20281;-62
2021/08/30 02:39:47;;;;;;;8.27;7.47;;;16.60;99.90;;;;;;5090225;28;20657;-61
2021/08/30 02:42:14;;;;;;;8.53;7.43;;;16.60;99.90;;;;;;5090353;28;20244;-60
2021/08/30 02:44:42;;;;;;;8.67;7.90;;;16.60;99.90;;;;;;5090012;28;20298;-61
2021/08/30 02:47:09;;;;;;;8.20;7.50;;;16.60;99.90;;;;;;5090466;28;20208;-61
2021/08/30 02:49:36;;;;;;;8.50;7.70;;;16.60;99.90;;;;;;5090106;28;20207;-61
2021/08/30 02:52:05;;;;;;;7.93;7.07;;;16.50;99.90;;;;;;5090705;28;20210;-61
2021/08/30 02:54:34;;;;;;;8.57;7.77;;;16.50;99.90;;;;;;5089996;28;20232;-61
2021/08/30 02:57:03;;;;;;;9.43;7.70;;;16.60;99.90;;;;;;5090275;28;20208;-62
2021/08/30 02:59:31;;;;;;;8.13;7.33;;;16.60;99.90;;;;;;5090018;28;20211;-62
2021/08/30 03:01:59;;;;;;;7.07;6.37;;;16.60;99.90;;;;;;5091190;28;20230;-62
2021/08/30 03:04:27;;;;;;;6.23;5.63;;;16.50;99.90;;;;;;5093975;28;20232;-62
2021/08/30 03:06:55;;;;;;;6.80;5.50;;;16.40;99.90;;;;;;5093773;28;20211;-60
2021/08/30 03:09:21;;;;;;;5.27;4.77;;;16.40;99.90;;;;;;5093529;28;20204;-60
2021/08/30 03:11:50;;;;;;;5.93;5.17;;;16.40;99.90;;;;;;5093713;28;20208;-60
2021/08/30 03:14:22;;;;;;;5.57;5.07;;;16.50;99.90;;;;;;5093400;28;20253;-60
2021/08/30 03:16:51;;;;;;;6.07;5.00;;;16.50;99.90;;;;;;5093684;28;20208;-60
2021/08/30 03:19:19;;;;;;;7.10;6.40;;;16.50;99.90;;;;;;5093464;28;20212;-60
2021/08/30 03:21:48;;;;;;;5.20;4.70;;;16.50;99.90;;;;;;5093411;28;20204;-60
2021/08/30 03:24:16;;;;;;;5.23;4.73;;;16.40;99.90;;;;;;5093744;28;20243;-60
2021/08/30 03:26:45;;;;;;;5.27;4.77;;;16.40;99.90;;;;;;5093770;28;20208;-62
2021/08/30 03:29:13;;;;;;;5.20;4.70;;;16.30;99.90;;;;;;5093420;28;20207;-62
2021/08/30 03:31:40;;;;;;;5.55;5.05;;;16.20;99.90;;;;;;5093335;28;20200;-60
2021/08/30 03:34:07;;;;;;;6.93;5.20;;;16.20;99.90;;;;;;5093043;28;20211;-60
2021/08/30 03:36:34;;;;;;;7.40;5.53;;;16.20;99.90;;;;;;5093229;28;20232;-60
2021/08/30 03:39:01;;;;;;;5.93;5.43;;;16.20;99.90;;;;;;5093292;28;20269;-60
2021/08/30 03:41:28;;;;;;;6.00;5.50;;;16.30;99.90;;;;;;5093476;28;20226;-60
2021/08/30 03:43:57;;;;;;;5.77;5.17;;;16.30;99.90;;;;;;5092928;28;20289;-61
2021/08/30 03:46:26;;;;;;;8.40;6.50;;;16.30;99.90;;;;;;5116572;22;20726;-60
2021/08/30 03:48:53;;;;;;;6.43;5.83;;;16.40;99.90;;;;;;5093555;28;20204;-60
2021/08/30 03:51:21;;;;;;;6.90;6.20;;;16.30;99.90;;;;;;5093537;28;20605;-60
2021/08/30 03:53:50;;;;;;;7.23;5.80;;;16.30;99.90;;;;;;5093639;28;20207;-60
2021/08/30 03:56:18;;;;;;;7.00;6.40;;;16.30;99.90;;;;;;5093386;28;20224;-60
2021/08/30 03:58:46;;;;;;;7.33;6.63;;;16.30;99.90;;;;;;5093185;28;20206;-59
2021/08/30 04:01:15;;;;;;;6.90;6.30;;;16.20;99.90;;;;;;5093323;28;20204;-59
2021/08/30 04:03:48;;;;;;;7.70;7.00;;;16.20;99.90;;;;;;5093553;28;20208;-59
2021/08/30 04:06:16;;;;;;;8.63;6.83;;;16.30;99.90;;;;;;5093299;28;20253;-59
2021/08/30 04:08:43;;;;;;;7.17;6.47;;;16.30;99.90;;;;;;5093177;28;20218;-59
2021/08/30 04:11:11;;;;;;;7.53;6.47;;;16.30;99.90;;;;;;5092933;28;20204;-60
2021/08/30 04:13:38;;;;;;;8.03;7.20;;;16.40;99.90;;;;;;5091840;28;20204;-60
2021/08/30 04:16:06;;;;;;;7.83;6.83;;;16.40;99.90;;;;;;5093232;28;20238;-60
2021/08/30 04:18:33;;;;;;;8.80;7.93;;;16.40;99.90;;;;;;5092844;28;20587;-60
2021/08/30 04:21:01;;;;;;;8.73;7.87;;;16.40;99.90;;;;;;5093106;28;20208;-60
2021/08/30 04:23:30;;;;;;;8.73;7.83;;;16.40;99.90;;;;;;5092678;28;20691;-60
2021/08/30 04:25:56;;;;;;;8.90;8.10;;;16.40;99.90;;;;;;5092892;28;20637;-61
2021/08/30 04:28:23;;;;;;;10.20;8.80;;;16.40;99.90;;;;;;5092768;28;20211;-61
2021/08/30 04:30:50;;;;;;;9.73;8.83;;;16.40;99.90;;;;;;5093129;28;20208;-61
2021/08/30 04:33:19;;;;;;;8.80;8.00;;;16.50;99.90;;;;;;5092938;28;20210;-60
2021/08/30 04:35:45;;;;;;;9.07;8.17;;;16.60;99.90;;;;;;5092550;28;20224;-59
2021/08/30 04:38:14;;;;;;;9.05;8.18;;;16.50;99.90;;;;;;5092856;28;20660;-60
2021/08/30 04:40:40;;;;;;;8.50;7.70;;;16.50;99.90;;;;;;5093079;28;20583;-61
2021/08/30 04:43:09;;;;;;;9.10;8.07;;;16.60;99.90;;;;;;5092701;28;20204;-60
2021/08/30 04:45:37;;;;;;;9.40;8.33;;;16.60;99.90;;;;;;5092670;28;20229;-60
2021/08/30 04:48:04;;;;;;;10.23;7.97;;;16.60;99.90;;;;;;5092802;28;20970;-59
2021/08/30 04:50:31;;;;;;;9.82;8.25;;;16.60;99.90;;;;;;5092498;28;20204;-60
2021/08/30 04:52:58;;;;;;;9.03;7.73;;;16.50;99.90;;;;;;5092819;28;20205;-61
2021/08/30 04:55:26;;;;;;;8.60;7.80;;;16.60;99.90;;;;;;5092185;28;20221;-60
2021/08/30 04:57:52;;;;;;;8.33;7.33;;;16.60;99.90;;;;;;5092531;28;20702;-60
2021/08/30 05:00:19;;;;;;;9.40;7.63;;;16.50;99.90;;;;;;5092881;28;20830;-60
2021/08/30 05:02:46;;;;;;;8.57;7.67;;;16.50;99.90;;;;;;5092438;28;20211;-61
2021/08/30 05:05:12;;;;;;;8.00;7.13;;;16.50;99.90;;;;;;5092217;28;20232;-60
2021/08/30 05:07:39;;;;;;;7.60;6.90;;;16.50;99.90;;;;;;5092218;28;20684;-61
2021/08/30 05:10:07;;;;;;;7.83;7.03;;;16.40;99.90;;;;;;5092549;28;20207;-60
2021/08/30 05:12:35;;;;;;;8.17;7.37;;;16.20;99.90;;;;;;5092303;28;20679;-61
2021/08/30 05:15:02;;;;;;;7.80;7.00;;;16.10;99.90;;;;;;5091971;28;20243;-61
2021/08/30 05:17:29;;;;;;;9.07;7.90;;;16.10;99.90;;;;;;5092186;28;20212;-62
2021/08/30 05:19:56;;;;;;;8.00;7.20;;;16.30;99.90;;;;;;5092438;28;20211;-60
2021/08/30 05:22:23;;;;;;;10.03;7.80;;;16.40;99.90;;;;;;5092311;28;20258;-59
2021/08/30 05:24:50;;;;;;;8.83;7.93;;;16.40;99.90;;;;;;5091600;28;20228;-60
2021/08/30 05:27:17;;;;;;;9.07;8.17;;;16.30;99.90;;;;;;5092669;28;20204;-60
2021/08/30 05:29:45;;;;;;;9.13;8.00;;;16.30;99.90;;;;;;5092004;28;20211;-60
2021/08/30 05:32:12;;;;;;;11.03;8.27;;;16.30;99.90;;;;;;5091977;28;20204;-60
2021/08/30 05:34:38;;;;;;;9.03;8.13;;;16.50;99.90;;;;;;5091805;28;20583;-60
2021/08/30 05:37:05;;;;;;;9.53;8.23;;;16.40;99.90;;;;;;5092285;28;20208;-60
2021/08/30 05:39:32;;;;;;;9.20;8.30;;;16.40;99.90;;;;;;5091519;28;20204;-60
2021/08/30 05:41:58;;;;;;;10.07;9.07;;;16.60;99.90;;;;;;5092031;28;20208;-60
2021/08/30 05:44:25;;;;;;;9.63;8.60;;;16.60;99.90;;;;;;5091428;28;20231;-60
2021/08/30 05:46:53;;;;;;;9.23;8.27;;;16.60;99.90;;;;;;5091668;28;20242;-60
2021/08/30 05:49:20;;;;;;;10.10;8.90;;;16.70;99.90;;;;;;5091449;28;20720;-60
2021/08/30 05:51:47;;;;;;;9.93;8.93;;;16.70;99.90;;;;;;5091544;28;20208;-60
2021/08/30 05:54:14;;;;;;;11.13;9.53;;;16.60;99.90;;;;;;5092389;28;20204;-60
2021/08/30 05:56:41;;;;;;;10.83;9.17;;;16.60;99.90;;;;;;5091832;28;20228;-60
2021/08/30 05:59:08;;;;;;;9.43;8.40;;;16.50;99.90;;;;;;5091988;28;20207;-60
2021/08/30 06:01:36;;;;;;;10.70;9.60;;;16.50;99.90;;;;;;5091669;28;20296;-60
2021/08/30 06:04:04;;;;;;;9.60;8.60;;;16.70;99.90;;;;;;5091254;28;20208;-60
2021/08/30 06:06:31;;;;;;;9.90;8.90;;;16.80;99.90;;;;;;5092044;28;20237;-60
2021/08/30 06:08:58;;;;;;;9.90;8.90;;;16.80;99.90;;;;;;5091876;28;20200;-60
2021/08/30 06:11:25;;;;;;;10.17;9.17;;;16.80;99.90;;;;;;5091490;28;20204;-61
2021/08/30 06:13:51;;;;;;;9.85;8.90;;;16.90;99.90;;;;;;5091151;28;20215;-60
2021/08/30 06:16:18;;;;;;;11.20;8.43;;;16.90;99.90;;;;;;5091179;28;20220;-60
2021/08/30 06:18:45;;;;;;;12.57;8.50;;;16.90;99.90;;;;;;5091305;28;20500;-60
2021/08/30 06:21:13;;;;;;;8.23;7.43;;;17.00;99.90;;;;;;5091585;28;20231;-60
2021/08/30 06:23:40;;;;;;;10.63;8.33;;;17.10;99.90;;;;;;5091390;28;20208;-60
2021/08/30 06:26:06;;;;;;;9.10;8.20;;;17.20;99.90;;;;;;5091089;28;20243;-60
2021/08/30 06:28:33;;;;;;;8.53;7.73;;;17.40;99.90;;;;;;5091046;28;20212;-60
2021/08/30 06:31:00;;;;;;;8.73;7.82;;;17.50;99.90;;;;;;5090947;28;20204;-61
2021/08/30 06:33:26;;;;;;;8.80;7.80;;;17.50;99.90;;;;;;5090818;28;20329;-60
2021/08/30 06:35:53;;;;;;;9.40;7.90;;;17.50;99.90;;;;;;5091388;28;20216;-60
2021/08/30 06:38:21;;;;;;;9.43;8.32;;;17.60;99.90;;;;;;5094016;28;20660;-60
2021/08/30 06:40:48;;;;;;;9.70;8.18;;;17.60;99.90;;;;;;5095030;28;20207;-60
2021/08/30 06:43:15;;;;;;;8.73;7.47;;;17.70;99.90;;;;;;5095278;28;20712;-60
2021/08/30 06:45:42;;;;;;;8.38;7.45;;;17.90;99.90;;;;;;5094534;28;20227;-60
2021/08/30 06:48:09;;;;;;;10.10;7.20;;;18.00;99.90;;;;;;5094989;28;20318;-60
2021/08/30 06:50:35;;;;;;;9.13;7.13;;;17.90;99.90;;;;;;5095158;28;20208;-60
2021/08/30 06:53:02;;;;;;;9.10;6.80;;;18.00;99.90;;;;;;5094860;28;20204;-60
2021/08/30 06:55:30;;;;;;;8.48;6.50;;;18.10;99.90;;;;;;5094746;28;20224;-60
2021/08/30 06:57:57;;;;;;;8.68;6.82;;;18.20;99.90;;;;;;5094843;28;20204;-60
2021/08/30 07:00:24;;;;;;;7.70;6.90;;;18.00;99.90;;;;;;5094928;28;20212;-60
2021/08/30 07:02:51;;;;;;;7.75;6.70;;;18.00;99.90;;;;;;5095033;28;20771;-60
2021/08/30 07:05:18;;;;;;;7.65;6.72;;;18.10;99.90;;;;;;5095065;28;20232;-60
2021/08/30 07:07:44;;;;;;;9.15;7.03;;;18.00;99.90;;;;;;5095321;28;20314;-60
2021/08/30 07:10:11;;;;;;;7.55;6.85;;;18.00;99.90;;;;;;5095069;28;20212;-60
2021/08/30 07:12:40;;;;;;;11.25;8.27;;;17.80;99.90;;;;;;5094741;28;20219;-60
2021/08/30 07:15:07;;;;;;;6.57;5.80;;;17.80;99.90;;;;;;5094126;28;20726;-60
2021/08/30 07:17:34;;;;;;;7.68;6.90;;;17.80;99.90;;;;;;5094518;28;20200;-62
2021/08/30 07:20:01;;;;;;;10.75;7.78;;;17.60;99.90;;;;;;5094671;28;20242;-61
2021/08/30 07:22:28;;;;;;;7.47;6.70;;;17.60;99.90;;;;;;5094633;28;20204;-60
2021/08/30 07:24:54;;;;;;;7.77;6.97;;;17.60;99.90;;;;;;5093744;28;20227;-61
2021/08/30 07:27:21;;;;;;;8.27;7.45;;;17.50;99.90;;;;;;5094281;28;20550;-60
2021/08/30 07:29:50;;;;;;;7.43;6.72;;;17.40;99.90;;;;;;5093982;28;20241;-60
2021/08/30 07:32:17;;;;;;;7.20;6.38;;;17.40;99.90;;;;;;5094468;28;20200;-60
2021/08/30 07:34:44;;;;;;;6.78;5.93;;;17.50;99.90;;;;;;5093820;28;20443;-61
2021/08/30 07:37:10;;;;;;;7.32;6.47;;;17.60;99.90;;;;;;5094020;28;20749;-61
2021/08/30 07:39:37;;;;;;;8.45;6.47;;;17.70;99.90;;;;;;5093646;28;20212;-61
2021/08/30 07:42:04;;;;;;;7.50;6.70;;;17.60;99.90;;;;;;5093745;28;20269;-60
2021/08/30 07:44:31;;;;;;;7.70;6.45;;;17.60;99.90;;;;;;5093810;28;20200;-61
2021/08/30 07:46:59;;;;;;;7.88;7.13;;;17.60;99.90;;;;;;5094132;28;20204;-61
2021/08/30 07:49:26;;;;;;;9.20;6.88;;;17.50;99.90;;;;;;5093452;28;20215;-61
2021/08/30 07:51:52;;;;;;;11.95;9.30;;;17.60;99.90;;;;;;5093590;28;20212;-60
2021/08/30 07:54:19;;;;;;;6.35;5.75;;;17.60;99.90;;;;;;5093323;28;20672;-60
2021/08/30 07:56:46;;;;;;;7.28;5.80;;;17.60;99.90;;;;;;5093311;28;20578;-61
2021/08/30 07:59:13;;;;;;;10.63;6.72;;;17.80;99.90;;;;;;5093616;28;20265;-60
2021/08/30 08:01:40;;;;;;;6.53;5.82;;;18.00;99.90;;;;;;5093305;28;20574;-60
2021/08/30 08:04:08;;;;;;;7.80;5.78;;;18.20;99.90;;;;;;5093499;28;20230;-60
2021/08/30 08:06:34;;;;;;;6.40;5.75;;;18.10;99.90;;;;;;5093113;28;20232;-60
2021/08/30 08:09:02;;;;;;;6.03;5.43;;;18.00;99.90;;;;;;5093531;28;20208;-60
2021/08/30 08:11:28;;;;;;;5.40;4.90;;;18.10;99.90;;;;;;5093328;28;20214;-60
2021/08/30 08:13:55;;;;;;;5.72;4.78;;;18.00;99.90;;;;;;5093159;28;20204;-60
2021/08/30 08:16:22;;;;;;;4.78;4.38;;;17.90;99.90;;;;;;5093417;28;20220;-60
2021/08/30 08:18:48;;;;;;;6.30;4.38;;;17.70;99.90;;;;;;5093375;28;20201;-60
2021/08/30 08:21:16;;;;;;;5.30;4.65;;;17.70;99.90;;;;;;5092780;28;20214;-60
2021/08/30 08:23:43;;;;;;;6.43;4.90;;;17.60;99.90;;;;;;5092603;28;20216;-60
2021/08/30 08:26:10;;;;;;;5.22;4.55;;;17.80;99.90;;;;;;5092732;28;20232;-60
2021/08/30 08:28:37;;;;;;;5.80;5.28;;;17.80;99.90;;;;;;5093000;28;20234;-59
2021/08/30 08:31:03;;;;;;;5.13;4.63;;;17.80;99.90;;;;;;5092926;28;20215;-59
2021/08/30 08:33:30;;;;;;;5.05;4.13;;;17.80;99.90;;;;;;5092455;28;20211;-59
2021/08/30 08:35:57;;;;;;;6.00;4.18;;;17.80;99.90;;;;;;5092559;28;20221;-60
2021/08/30 08:38:25;;;;;;;5.53;3.92;;;17.80;99.90;;;;;;5092395;28;20211;-59
2021/08/30 08:40:52;;;;;;;4.85;3.65;;;17.80;99.90;;;;;;5092703;28;20204;-60
2021/08/30 08:43:21;;;;;;;5.30;3.92;;;17.80;99.90;;;;;;5092763;28;20204;-60
2021/08/30 08:45:49;;;;;;;4.70;3.47;;;17.80;99.90;;;;;;5092178;28;20629;-59
2021/08/30 08:48:17;;;;;;;4.55;3.35;;;17.80;99.90;;;;;;5092511;28;20590;-59
2021/08/30 08:50:44;;;;;;;5.13;4.07;;;17.70;99.90;;;;;;5092149;28;20237;-59
2021/08/30 08:53:11;;;;;;;5.18;4.20;;;17.70;99.90;;;;;;5092667;28;20676;-59
2021/08/30 08:55:39;;;;;;;5.57;4.05;;;17.90;99.90;;;;;;5092032;28;20614;-59
2021/08/30 08:58:10;;;;;;;4.55;4.15;;;18.10;99.90;;;;;;5092447;28;20216;-60
2021/08/30 09:00:38;;;;;;;4.70;4.20;;;18.40;99.90;;;;;;5091734;28;20223;-59
2021/08/30 09:03:13;;;;;;;4.38;3.97;;;18.50;99.90;;;;;;5092185;28;20231;-59
2021/08/30 09:05:40;;;;;;;5.45;4.35;;;18.70;99.90;;;;;;5091720;28;20714;-59
2021/08/30 09:08:07;;;;;;;5.90;4.32;;;19.10;99.90;;;;;;5091908;28;20672;-59
2021/08/30 09:10:39;;;;;;;7.88;4.70;;;19.70;99.90;;;;;;5092175;28;20728;-59
2021/08/30 09:13:08;;;;;;;4.93;4.35;;;20.10;99.90;;;;;;5092203;28;20656;-59
2021/08/30 09:15:42;;;;;;;6.18;5.15;;;20.60;99.90;;;;;;5091994;28;20243;-60
2021/08/30 09:18:12;;;;;;;5.53;4.90;;;20.80;99.90;;;;;;5091732;28;20204;-60
2021/08/30 09:20:39;;;;;;;6.97;4.97;;;21.10;99.90;;;;;;5092231;28;20220;-60
2021/08/30 09:23:11;;;;;;;5.50;5.00;;;21.30;99.90;;;;;;5091976;28;20208;-60
2021/08/30 09:25:39;;;;;;;7.97;5.15;;;21.30;99.90;;;;;;5091406;28;20688;-59
2021/08/30 09:28:07;;;;;;;7.15;5.85;;;21.20;99.90;;;;;;5091630;28;20313;-60
2021/08/30 09:30:34;;;;;;;7.93;5.53;;;20.90;99.90;;;;;;5091828;28;20734;-60
2021/08/30 09:33:01;;;;;;;6.05;5.43;;;20.60;99.90;;;;;;5091908;28;20231;-60
2021/08/30 09:35:28;;;;;;;6.43;5.18;;;20.50;99.90;;;;;;5091723;28;20228;-62
2021/08/30 09:37:55;;;;;;;6.70;5.40;;;20.20;99.90;;;;;;5091821;28;20204;-61
2021/08/30 09:40:24;;;;;;;7.63;5.53;;;20.00;99.90;;;;;;5091842;28;20208;-60
2021/08/30 09:42:53;;;;;;;6.10;5.50;;;19.90;99.90;;;;;;5091309;28;20292;-60
2021/08/30 09:45:22;;;;;;;5.97;5.13;;;19.80;99.90;;;;;;5105822;22;20251;-61
2021/08/30 09:47:51;;;;;;;6.47;4.75;;;19.80;99.90;;;;;;5090876;28;20211;-61
2021/08/30 09:50:18;;;;;;;5.72;4.60;;;19.70;99.90;;;;;;5090750;28;20211;-62
2021/08/30 09:52:45;;;;;;;6.85;5.55;;;19.70;99.90;;;;;;5091044;28;20212;-62
2021/08/30 09:55:12;;;;;;;5.38;4.88;;;19.70;99.90;;;;;;5090802;28;20228;-63
2021/08/30 09:57:46;;;;;;;5.78;5.18;;;19.70;99.90;;;;;;5090286;28;20219;-63
2021/08/30 10:00:14;;;;;;;5.82;4.78;;;19.90;99.90;;;;;;5090895;28;20208;-62
2021/08/30 10:02:46;;;;;;;6.53;4.85;;;20.00;99.90;;;;;;5090753;28;20206;-63
2021/08/30 10:05:13;;;;;;;5.38;4.78;;;19.90;99.90;;;;;;5090755;28;20239;-64
2021/08/30 10:07:40;;;;;;;4.85;4.30;;;19.70;99.90;;;;;;5090543;28;20278;-64
2021/08/30 10:10:08;;;;;;;5.45;4.80;;;19.60;99.90;;;;;;5090970;28;20327;-64
2021/08/30 10:12:35;;;;;;;7.88;5.05;;;19.40;99.90;;;;;;5093044;28;20204;-62
2021/08/30 10:15:02;;;;;;;5.15;4.65;;;19.40;99.90;;;;;;5094916;28;20200;-64
2021/08/30 10:17:29;;;;;;;6.32;5.32;;;19.50;99.90;;;;;;5094650;28;20471;-63
2021/08/30 10:19:59;;;;;;;5.60;4.78;;;19.70;99.90;;;;;;5094515;28;20204;-63
2021/08/30 10:22:27;;;;;;;5.20;4.70;;;20.00;99.90;;;;;;5094656;28;20204;-63
2021/08/30 10:24:54;;;;;;;5.28;4.55;;;19.90;99.90;;;;;;5094362;28;20204;-63
2021/08/30 10:27:33;;;;;;;5.15;4.65;;;19.80;99.90;;;;;;5094754;28;20699;-63
2021/08/30 10:30:09;;;;;;;6.32;4.97;;;19.80;99.90;;;;;;5094480;28;20211;-63
2021/08/30 10:32:41;;;;;;;5.35;4.40;;;19.70;99.90;;;;;;5094388;28;20703;-63
2021/08/30 10:35:20;;;;;;;5.82;4.35;;;19.70;99.90;;;;;;5094492;28;20260;-63
2021/08/30 10:37:52;;;;;;;5.18;4.00;;;19.50;99.90;;;;;;5094474;28;20204;-64
2021/08/30 10:40:21;;;;;;;4.35;3.95;;;19.10;99.90;;;;;;5094414;28;20672;-63
2021/08/30 10:42:58;;;;;;;17.70;11.38;;;18.90;99.90;;;;;;5094322;28;20208;-62
2021/08/30 10:45:31;;;;;;;7.65;4.78;;;18.90;99.90;;;;;;5093971;28;20642;-63
2021/08/30 10:48:01;;;;;;;5.25;4.75;;;19.00;99.90;;;;;;5094151;28;20295;-64
2021/08/30 10:50:30;;;;;;;4.28;3.88;;;19.40;99.90;;;;;;5094220;28;20585;-63
2021/08/30 10:53:05;;;;;;;4.82;4.28;;;19.90;99.90;;;;;;5094173;28;20219;-63
2021/08/30 10:55:40;;;;;;;7.47;6.03;;;20.40;99.90;;;;;;5093759;28;20702;-64
2021/08/30 10:58:14;;;;;;;5.07;4.47;;;20.90;99.90;;;;;;5093917;28;20619;-64
2021/08/30 11:00:41;;;;;;;4.85;4.35;;;21.50;99.90;;;;;;5086128;28;20217;-63
2021/08/30 11:03:08;;;;;;;4.90;4.35;;;21.90;99.90;;;;;;5072857;28;20623;-64
2021/08/30 11:05:37;;;;;;;5.25;4.07;;;21.90;99.90;;;;;;5073304;28;20224;-64
2021/08/30 11:08:04;;;;;;;4.93;4.20;;;22.20;99.90;;;;;;5073478;28;20539;-65
2021/08/30 11:10:33;;;;;;;6.25;4.45;;;22.20;99.90;;;;;;5072913;28;20204;-65
2021/08/30 11:13:00;;;;;;;5.70;4.80;;;22.20;99.90;;;;;;5073565;28;20213;-64
2021/08/30 11:15:31;;;;;;;4.70;4.13;;;22.10;99.90;;;;;;5073792;28;20282;-65
2021/08/30 11:18:03;;;;;;;5.88;4.53;;;22.00;99.90;;;;;;5071618;28;20209;-65
2021/08/30 11:20:30;;;;;;;5.97;4.72;;;22.10;99.90;;;;;;5073309;28;20212;-65
2021/08/30 11:22:58;;;;;;;5.70;4.88;;;22.10;99.90;;;;;;5071289;28;20209;-66
2021/08/30 11:25:35;;;;;;;6.95;5.47;;;22.20;99.90;;;;;;5072980;28;20715;-67
2021/08/30 11:28:13;;;;;;;5.65;5.07;;;21.90;99.90;;;;;;5073714;28;20286;-70
2021/08/30 11:30:39;;;;;;;7.20;5.70;;;21.50;99.90;;;;;;5073781;28;20212;-65
2021/08/30 11:33:06;;;;;;;5.75;5.15;;;21.20;99.90;;;;;;5073550;28;20231;-66
2021/08/30 11:35:33;;;;;;;9.05;5.40;;;21.30;99.90;;;;;;5072602;28;20297;-65
2021/08/30 11:38:10;;;;;;;6.25;5.63;;;21.10;99.90;;;;;;5073053;28;20224;-66
2021/08/30 11:40:37;;;;;;;7.97;5.78;;;21.30;99.90;;;;;;5073070;28;20212;-66
2021/08/30 11:43:12;;;;;;;6.22;5.60;;;21.40;99.90;;;;;;5073136;28;20209;-66
2021/08/30 11:45:39;;;;;;;6.05;5.45;;;21.70;99.90;;;;;;5072635;28;20239;-65
2021/08/30 11:48:06;;;;;;;6.60;5.65;;;21.70;99.90;;;;;;5072745;28;20224;-64
2021/08/30 11:50:34;;;;;;;7.68;5.65;;;21.40;99.90;;;;;;5072802;28;20205;-64
2021/08/30 11:53:10;;;;;;;11.52;7.95;;;21.30;99.90;;;;;;5072804;28;20205;-65
2021/08/30 11:55:37;;;;;;;7.47;6.20;;;21.40;99.90;;;;;;5072552;28;20327;-64
2021/08/30 11:58:05;;;;;;;5.85;5.18;;;21.70;99.90;;;;;;5072803;28;20217;-64
2021/08/30 12:00:32;;;;;;;5.75;4.97;;;21.90;99.90;;;;;;5072470;28;20204;-64
2021/08/30 12:03:00;;;;;;;6.22;5.15;;;21.90;99.90;;;;;;5072600;28;20402;-64
2021/08/30 12:05:28;;;;;;;5.32;4.82;;;21.70;99.90;;;;;;5072261;28;20229;-64
2021/08/30 12:07:56;;;;;;;6.05;5.45;;;21.70;99.90;;;;;;5072301;28;20220;-65
2021/08/30 12:10:26;;;;;;;6.45;5.78;;;21.90;99.90;;;;;;5072265;28;20262;-64
2021/08/30 12:13:07;;;;;;;6.57;5.88;;;22.10;99.90;;;;;;5072001;28;20209;-64
2021/08/30 12:15:36;;;;;;;6.72;5.93;;;22.10;99.90;;;;;;5072355;28;20235;-63
2021/08/30 12:18:03;;;;;;;7.47;5.70;;;22.20;99.90;;;;;;5071939;28;20204;-68
2021/08/30 12:20:33;;;;;;;6.10;5.40;;;21.90;99.90;;;;;;5072345;28;20213;-63
2021/08/30 12:23:02;;;;;;;7.18;5.90;;;21.80;99.90;;;;;;5071712;28;20212;-64
2021/08/30 12:25:35;;;;;;;5.95;5.35;;;21.90;99.90;;;;;;5071961;28;20232;-64
2021/08/30 12:28:03;;;;;;;6.25;4.93;;;22.00;99.90;;;;;;5071988;28;20225;-63
2021/08/30 12:30:32;;;;;;;7.90;6.57;;;22.00;99.90;;;;;;5072048;28;20213;-64
2021/08/30 12:33:07;;;;;;;4.95;4.50;;;22.40;99.90;;;;;;5072148;28;20680;-64
2021/08/30 12:35:36;;;;;;;7.47;4.97;;;22.80;99.90;;;;;;5070866;28;20231;-64
2021/08/30 12:38:06;;;;;;;5.07;4.13;;;23.10;99.90;;;;;;5071916;28;20209;-64
2021/08/30 12:40:35;;;;;;;4.78;4.15;;;23.10;99.90;;;;;;5071905;28;20205;-63
2021/08/30 12:43:02;;;;;;;4.68;3.97;;;23.20;99.90;;;;;;5071697;28;20280;-63
2021/08/30 12:45:30;;;;;;;4.78;4.05;;;23.00;99.90;;;;;;5071195;28;20233;-64
2021/08/30 12:47:57;;;;;;;4.30;3.90;;;22.70;99.90;;;;;;5071564;28;20225;-64
2021/08/30 12:50:25;;;;;;;3.90;3.50;;;22.50;99.90;;;;;;5072114;28;20294;-65
2021/08/30 12:52:52;;;;;;;3.80;3.40;;;22.50;99.90;;;;;;5072036;28;20616;-65